createdAt,value
2023-01-07T00:01:02.393Z,0.60
2023-01-07T00:03:30.470Z,2.00
2023-01-07T00:06:01.462Z,3.20
2023-01-07T00:08:31.511Z,1.60
2023-01-07T00:11:02.064Z,0.60
2023-01-07T00:13:31.450Z,1.00
2023-01-07T00:16:00.356Z,1.20
2023-01-07T00:18:28.434Z,1.20
2023-01-07T00:20:57.950Z,1.00
2023-01-07T00:23:25.861Z,1.50
2023-01-07T00:25:59.990Z,1.67
2023-01-07T00:28:27.940Z,0.60
2023-01-07T00:31:01.692Z,2.10
2023-01-07T00:33:29.786Z,1.50
2023-01-07T00:36:01.060Z,2.73
2023-01-07T00:38:29.259Z,1.70
2023-01-07T00:40:57.077Z,1.67
2023-01-07T00:43:24.826Z,2.10
2023-01-07T00:45:52.707Z,2.40
2023-01-07T00:48:23.727Z,1.47
2023-01-07T00:50:52.726Z,1.13
2023-01-07T00:53:21.190Z,1.57
2023-01-07T00:55:49.741Z,2.03
2023-01-07T00:58:21.766Z,1.67
2023-01-07T01:00:49.883Z,1.27
2023-01-07T01:03:17.661Z,3.27
2023-01-07T01:05:46.771Z,1.90
2023-01-07T01:08:14.515Z,4.33
2023-01-07T01:10:42.282Z,1.07
2023-01-07T01:13:13.641Z,2.73
2023-01-07T01:15:43.340Z,2.73
2023-01-07T01:18:11.566Z,2.17
2023-01-07T01:20:39.598Z,1.67
2023-01-07T01:23:09.592Z,1.70
2023-01-07T01:25:37.363Z,3.93
2023-01-07T01:28:05.422Z,3.83
2023-01-07T01:30:33.164Z,1.57
2023-01-07T01:33:00.914Z,2.80
2023-01-07T01:35:28.670Z,2.43
2023-01-07T01:37:56.442Z,1.37
2023-01-07T01:40:29.814Z,3.03
2023-01-07T01:42:57.694Z,2.37
2023-01-07T01:45:27.209Z,2.70
2023-01-07T01:47:58.832Z,1.70
2023-01-07T01:50:31.030Z,3.17
2023-01-07T01:53:03.984Z,3.63
2023-01-07T01:55:44.389Z,2.97
2023-01-07T01:58:15.983Z,2.90
2023-01-07T02:00:44.309Z,2.57
2023-01-07T02:03:16.031Z,2.70
2023-01-07T02:05:44.931Z,5.03
2023-01-07T02:08:15.053Z,4.00
2023-01-07T02:10:44.237Z,2.57
2023-01-07T02:13:29.481Z,2.50
2023-01-07T02:16:04.545Z,1.83
2023-01-07T02:18:43.341Z,2.83
2023-01-07T02:21:21.480Z,2.23
2023-01-07T02:24:24.200Z,2.27
2023-01-07T02:27:22.541Z,2.77
2023-01-07T02:30:23.963Z,2.93
2023-01-07T02:33:19.989Z,2.83
2023-01-07T02:36:05.503Z,2.20
2023-01-07T02:38:42.198Z,4.13
2023-01-07T02:41:18.804Z,5.77
2023-01-07T02:43:55.521Z,2.47
2023-01-07T02:46:28.605Z,4.83
2023-01-07T02:48:59.681Z,5.47
2023-01-07T02:51:37.091Z,4.33
2023-01-07T02:54:08.310Z,4.27
2023-01-07T02:56:51.546Z,5.33
2023-01-07T02:59:52.933Z,3.37
2023-01-07T03:02:36.040Z,6.00
2023-01-07T03:05:18.556Z,7.40
2023-01-07T03:08:03.203Z,3.47
2023-01-07T03:10:39.128Z,4.70
2023-01-07T03:13:12.625Z,3.53
2023-01-07T03:15:45.945Z,5.17
2023-01-07T03:18:18.961Z,5.57
2023-01-07T03:20:52.025Z,5.57
2023-01-07T03:23:23.430Z,4.47
2023-01-07T03:25:54.147Z,2.70
2023-01-07T03:28:25.647Z,5.90
2023-01-07T03:30:55.664Z,3.70
2023-01-07T03:33:28.820Z,4.83
2023-01-07T03:36:00.144Z,4.30
2023-01-07T03:38:29.098Z,4.67
2023-01-07T03:40:57.174Z,5.10
2023-01-07T03:43:24.022Z,4.87
2023-01-07T03:45:54.369Z,4.67
2023-01-07T03:48:22.172Z,4.50
2023-01-07T03:50:49.915Z,4.27
2023-01-07T03:53:19.009Z,3.93
2023-01-07T03:55:46.765Z,6.23
2023-01-07T03:58:14.635Z,4.47
2023-01-07T04:00:42.489Z,6.00
2023-01-07T04:03:11.493Z,4.97
2023-01-07T04:05:39.266Z,4.70
2023-01-07T04:08:07.087Z,8.00
2023-01-07T04:10:36.174Z,4.87
2023-01-07T04:13:03.979Z,5.33
2023-01-07T04:15:31.726Z,4.43
2023-01-07T04:17:59.479Z,6.43
2023-01-07T04:20:27.295Z,3.93
2023-01-07T04:22:55.066Z,3.50
2023-01-07T04:25:22.798Z,6.30
2023-01-07T04:27:51.925Z,5.20
2023-01-07T04:30:19.892Z,3.27
2023-01-07T04:32:47.652Z,4.07
2023-01-07T04:35:15.512Z,5.63
2023-01-07T04:37:43.266Z,4.53
2023-01-07T04:40:11.757Z,3.83
2023-01-07T04:42:39.513Z,4.43
2023-01-07T04:45:09.863Z,3.67
2023-01-07T04:47:37.628Z,5.70
2023-01-07T04:50:06.041Z,4.30
2023-01-07T04:52:34.138Z,4.93
2023-01-07T04:55:01.915Z,2.83
2023-01-07T04:57:29.699Z,5.27
2023-01-07T04:59:57.462Z,6.60
2023-01-07T05:02:26.568Z,5.13
2023-01-07T05:04:54.338Z,3.87
2023-01-07T05:07:22.132Z,3.23
2023-01-07T05:09:49.923Z,5.17
2023-01-07T05:12:17.682Z,5.30
2023-01-07T05:14:45.449Z,4.07
2023-01-07T05:17:13.206Z,2.67
2023-01-07T05:19:42.353Z,3.87
2023-01-07T05:22:10.177Z,6.97
2023-01-07T05:24:38.015Z,4.77
2023-01-07T05:27:05.773Z,4.90
2023-01-07T05:29:33.551Z,3.67
2023-01-07T05:32:01.321Z,5.10
2023-01-07T05:34:29.074Z,3.93
2023-01-07T05:36:58.260Z,5.57
2023-01-07T05:39:26.679Z,4.50
2023-01-07T05:41:54.415Z,3.60
2023-01-07T05:44:22.225Z,4.60
2023-01-07T05:46:49.959Z,3.57
2023-01-07T05:49:17.756Z,3.13
2023-01-07T05:51:45.516Z,4.03
2023-01-07T05:54:14.612Z,4.33
2023-01-07T05:56:42.377Z,3.33
2023-01-07T05:59:10.129Z,5.63
2023-01-07T06:01:37.851Z,3.03
2023-01-07T06:04:05.772Z,4.53
2023-01-07T06:06:33.504Z,5.20
2023-01-07T06:09:01.263Z,3.80
2023-01-07T06:11:30.325Z,3.30
2023-01-07T06:13:58.104Z,4.07
2023-01-07T06:16:25.859Z,6.00
2023-01-07T06:18:53.592Z,3.20
2023-01-07T06:21:21.560Z,4.07
2023-01-07T06:23:49.302Z,2.90
2023-01-07T06:26:17.091Z,5.43
2023-01-07T06:28:46.751Z,3.07
2023-01-07T06:31:14.787Z,4.57
2023-01-07T06:33:42.563Z,4.03
2023-01-07T06:36:10.708Z,4.87
2023-01-07T06:38:38.437Z,2.90
2023-01-07T06:41:06.400Z,3.27
2023-01-07T06:43:34.207Z,2.60
2023-01-07T06:46:03.612Z,2.53
2023-01-07T06:48:31.419Z,2.90
2023-01-07T06:50:59.187Z,3.93
2023-01-07T06:53:26.950Z,3.83
2023-01-07T06:55:54.706Z,4.50
2023-01-07T06:58:22.485Z,4.37
2023-01-07T07:00:50.281Z,2.93
2023-01-07T07:03:19.566Z,2.07
2023-01-07T07:05:48.083Z,2.47
2023-01-07T07:08:15.866Z,2.57
2023-01-07T07:10:43.635Z,3.47
2023-01-07T07:13:11.977Z,4.63
2023-01-07T07:15:39.830Z,4.13
2023-01-07T07:18:07.593Z,3.30
2023-01-07T07:20:36.780Z,4.27
2023-01-07T07:23:04.583Z,3.73
2023-01-07T07:25:32.403Z,4.40
2023-01-07T07:28:00.177Z,2.97
2023-01-07T07:30:46.230Z,2.77
2023-01-07T07:33:19.349Z,4.00
2023-01-07T07:35:49.008Z,3.67
2023-01-07T07:38:17.878Z,4.63
2023-01-07T07:40:45.994Z,3.33
2023-01-07T07:43:13.848Z,3.10
2023-01-07T07:45:42.068Z,5.17
2023-01-07T07:48:11.071Z,3.57
2023-01-07T07:50:38.858Z,4.80
2023-01-07T07:53:10.201Z,5.77
2023-01-07T07:55:38.805Z,3.53
2023-01-07T07:58:07.128Z,4.80
2023-01-07T08:00:34.982Z,5.17
2023-01-07T08:03:03.074Z,4.57
2023-01-07T08:05:31.587Z,3.97
2023-01-07T08:07:59.473Z,4.73
2023-01-07T08:10:29.573Z,5.67
2023-01-07T08:12:57.486Z,4.43
2023-01-07T08:15:25.424Z,4.90
2023-01-07T08:18:00.583Z,6.67
2023-01-07T08:20:29.122Z,5.60
2023-01-07T08:22:59.340Z,3.57
2023-01-07T08:25:28.739Z,3.83
2023-01-07T08:27:56.899Z,4.63
2023-01-07T08:30:25.272Z,4.27
2023-01-07T08:32:53.108Z,4.73
2023-01-07T08:35:21.220Z,4.90
2023-01-07T08:37:49.014Z,3.03
2023-01-07T08:40:16.993Z,4.80
2023-01-07T08:42:46.175Z,3.63
2023-01-07T08:45:14.024Z,4.00
2023-01-07T08:47:41.797Z,6.70
2023-01-07T08:50:10.459Z,4.00
2023-01-07T08:52:38.239Z,4.80
2023-01-07T08:55:06.685Z,3.60
2023-01-07T08:57:34.453Z,3.43
2023-01-07T09:00:03.602Z,4.20
2023-01-07T09:02:31.534Z,3.83
2023-01-07T09:04:59.457Z,4.50
2023-01-07T09:07:27.271Z,5.53
2023-01-07T09:09:55.044Z,2.83
2023-01-07T09:12:22.841Z,4.03
2023-01-07T09:14:50.666Z,4.50
2023-01-07T09:17:19.827Z,3.40
2023-01-07T09:19:47.625Z,3.33
2023-01-07T09:22:15.454Z,2.20
2023-01-07T09:24:43.231Z,5.13
2023-01-07T09:27:11.293Z,2.80
2023-01-07T09:29:39.104Z,3.57
2023-01-07T09:32:12.812Z,2.73
2023-01-07T09:34:41.932Z,3.03
2023-01-07T09:37:09.739Z,2.33
2023-01-07T09:39:37.580Z,2.93
2023-01-07T09:42:09.137Z,2.47
2023-01-07T09:44:54.940Z,2.73
2023-01-07T09:47:26.200Z,2.00
2023-01-07T09:49:58.733Z,3.10
2023-01-07T09:52:31.721Z,1.47
2023-01-07T09:55:04.565Z,0.90
2023-01-07T09:57:32.448Z,1.53
2023-01-07T10:00:00.270Z,1.37
2023-01-07T10:02:40.969Z,1.77
2023-01-07T10:05:21.885Z,1.30
2023-01-07T10:08:30.715Z,1.27
2023-01-07T10:10:53.429Z,1.50
2023-01-07T10:13:42.259Z,2.50
2023-01-07T10:16:18.164Z,1.33
2023-01-07T10:18:50.631Z,1.07
2023-01-07T10:21:26.195Z,0.80
2023-01-07T10:23:58.880Z,0.70
2023-01-07T10:26:37.313Z,0.87
2023-01-07T10:29:09.127Z,0.90
2023-01-07T10:31:37.660Z,1.20
2023-01-07T10:34:14.160Z,0.60
2023-01-07T10:36:54.225Z,0.73
2023-01-07T10:39:29.389Z,1.90
2023-01-07T10:42:02.335Z,0.63
2023-01-07T10:44:50.243Z,0.50
2023-01-07T10:47:33.273Z,0.77
2023-01-07T10:50:21.579Z,0.50
2023-01-07T10:53:01.143Z,1.13
2023-01-07T10:55:42.891Z,0.90
2023-01-07T10:58:12.106Z,0.73
2023-01-07T11:00:40.791Z,0.40
2023-01-07T11:03:19.410Z,0.50
2023-01-07T11:05:49.431Z,0.50
2023-01-07T11:08:28.339Z,0.40
2023-01-07T11:10:58.012Z,0.67
2023-01-07T11:13:29.841Z,0.30
2023-01-07T11:16:01.580Z,0.60
2023-01-07T11:18:34.977Z,0.60
2023-01-07T11:21:03.281Z,0.40
2023-01-07T11:23:35.030Z,0.30
2023-01-07T11:26:16.457Z,0.43
2023-01-07T11:28:51.416Z,1.20
2023-01-07T11:31:19.454Z,0.20
2023-01-07T11:34:03.107Z,0.40
2023-01-07T11:36:42.099Z,0.50
2023-01-07T11:39:13.001Z,0.50
2023-01-07T11:41:53.177Z,0.30
2023-01-07T11:44:21.052Z,1.47
2023-01-07T11:46:49.328Z,0.90
2023-01-07T11:49:28.900Z,0.30
2023-01-07T11:51:59.623Z,0.40
2023-01-07T11:54:31.198Z,0.43
2023-01-07T11:57:13.299Z,0.20
2023-01-07T11:59:41.019Z,0.37
2023-01-07T12:02:25.213Z,1.07
2023-01-07T12:04:52.982Z,0.20
2023-01-07T12:07:21.713Z,0.20
2023-01-07T12:09:50.924Z,0.40
2023-01-07T12:12:36.820Z,0.30
2023-01-07T12:15:07.827Z,0.37
2023-01-07T12:17:36.811Z,1.33
2023-01-07T12:20:28.536Z,0.40
2023-01-07T12:23:05.539Z,0.30
2023-01-07T12:25:44.277Z,0.30
2023-01-07T12:28:15.065Z,0.17
2023-01-07T12:30:59.387Z,0.37
2023-01-07T12:33:47.677Z,0.50
2023-01-07T12:36:21.300Z,0.13
2023-01-07T12:38:50.539Z,0.30
2023-01-07T12:41:24.119Z,0.30
2023-01-07T12:43:59.761Z,0.40
2023-01-07T12:46:30.720Z,0.50
2023-01-07T12:49:06.531Z,2.70
2023-01-07T12:51:39.997Z,0.20
2023-01-07T12:54:16.407Z,0.30
2023-01-07T12:56:52.218Z,0.20
2023-01-07T12:59:46.719Z,0.20
2023-01-07T13:02:24.969Z,0.37
2023-01-07T13:05:00.861Z,0.43
2023-01-07T13:07:36.526Z,0.40
2023-01-07T13:10:11.909Z,0.40
2023-01-07T13:12:46.569Z,0.30
2023-01-07T13:15:22.209Z,0.40
2023-01-07T13:17:51.588Z,0.20
2023-01-07T13:20:35.084Z,0.80
2023-01-07T13:23:06.092Z,0.67
2023-01-07T13:25:47.835Z,0.40
2023-01-07T13:28:33.864Z,0.23
2023-01-07T13:31:20.609Z,0.23
2023-01-07T13:33:55.401Z,0.30
2023-01-07T13:36:31.598Z,0.70
2023-01-07T13:39:25.891Z,0.30
2023-01-07T13:42:16.770Z,0.23
2023-01-07T13:45:07.266Z,0.70
2023-01-07T13:47:43.595Z,0.30
2023-01-07T13:50:21.852Z,0.30
2023-01-07T13:52:58.167Z,0.50
2023-01-07T13:55:33.368Z,0.30
2023-01-07T13:58:02.691Z,1.03
2023-01-07T14:00:43.671Z,0.50
2023-01-07T14:03:46.726Z,0.30
2023-01-07T14:06:39.859Z,0.60
2023-01-07T14:09:17.584Z,0.30
2023-01-07T14:12:22.639Z,0.70
2023-01-07T14:14:59.619Z,0.40
2023-01-07T14:17:38.519Z,0.63
2023-01-07T14:20:18.178Z,0.73
2023-01-07T14:22:54.919Z,0.40
2023-01-07T14:25:40.967Z,2.63
2023-01-07T14:28:49.801Z,0.40
2023-01-07T14:31:23.001Z,0.60
2023-01-07T14:33:58.229Z,0.30
2023-01-07T14:36:46.844Z,0.30
2023-01-07T14:39:33.753Z,0.20
2023-01-07T14:42:27.811Z,0.57
2023-01-07T14:44:55.591Z,0.27
2023-01-07T14:47:54.074Z,0.20
2023-01-07T14:50:32.784Z,0.40
2023-01-07T14:53:49.321Z,0.40
2023-01-07T14:56:38.622Z,0.23
2023-01-07T14:59:25.287Z,0.30
2023-01-07T15:02:02.372Z,0.30
2023-01-07T15:05:00.539Z,0.40
2023-01-07T15:07:33.382Z,0.93
2023-01-07T15:10:21.257Z,0.30
2023-01-07T15:13:14.036Z,0.43
2023-01-07T15:16:06.240Z,0.40
2023-01-07T15:18:43.986Z,0.50
2023-01-07T15:21:19.928Z,1.17
2023-01-07T15:23:55.679Z,0.90
2023-01-07T15:26:33.348Z,0.20
2023-01-07T15:29:10.224Z,0.40
2023-01-07T15:31:43.698Z,0.30
2023-01-07T15:34:13.553Z,1.13
2023-01-07T15:36:44.180Z,0.77
2023-01-07T15:39:20.061Z,0.60
2023-01-07T15:41:48.240Z,0.13
2023-01-07T15:44:21.563Z,0.20
2023-01-07T15:46:49.447Z,0.20
2023-01-07T15:49:23.415Z,0.20
2023-01-07T15:51:54.419Z,1.00
2023-01-07T15:54:31.805Z,0.67
2023-01-07T15:57:04.165Z,0.77
2023-01-07T15:59:36.282Z,0.50
2023-01-07T16:02:16.265Z,0.30
2023-01-07T16:04:48.300Z,0.60
2023-01-07T16:07:23.480Z,0.20
2023-01-07T16:09:51.944Z,0.40
2023-01-07T16:12:30.612Z,0.60
2023-01-07T16:14:59.915Z,0.30
2023-01-07T16:17:28.175Z,0.27
2023-01-07T16:20:13.366Z,0.17
2023-01-07T16:22:42.639Z,0.27
2023-01-07T16:25:17.234Z,0.20
2023-01-07T16:27:45.593Z,0.20
2023-01-07T16:30:16.475Z,1.00
2023-01-07T16:32:45.441Z,0.23
2023-01-07T16:35:21.586Z,0.40
2023-01-07T16:37:50.745Z,0.20
2023-01-07T16:40:31.090Z,0.40
2023-01-07T16:42:58.847Z,0.77
2023-01-07T16:45:30.601Z,0.20
2023-01-07T16:48:09.248Z,0.23
2023-01-07T16:50:40.089Z,0.30
2023-01-07T16:53:26.909Z,0.50
2023-01-07T16:56:08.055Z,0.20
2023-01-07T16:58:41.063Z,0.20
2023-01-07T17:01:11.115Z,0.30
2023-01-07T17:03:47.614Z,0.40
2023-01-07T17:06:15.958Z,0.80
2023-01-07T17:08:50.278Z,0.67
2023-01-07T17:11:23.510Z,0.40
2023-01-07T17:13:51.349Z,0.87
2023-01-07T17:16:26.487Z,0.43
2023-01-07T17:18:55.702Z,0.83
2023-01-07T17:21:41.376Z,0.30
2023-01-07T17:24:47.284Z,0.50
2023-01-07T17:27:24.449Z,0.40
2023-01-07T17:29:53.130Z,0.70
2023-01-07T17:32:24.113Z,0.40
2023-01-07T17:34:51.989Z,1.00
2023-01-07T17:37:19.806Z,0.30
2023-01-07T17:39:48.281Z,0.20
2023-01-07T17:42:40.022Z,0.30
2023-01-07T17:45:09.117Z,0.40
2023-01-07T17:47:39.747Z,0.40
2023-01-07T17:50:08.102Z,0.20
2023-01-07T17:52:35.887Z,0.40
2023-01-07T17:55:04.078Z,1.00
2023-01-07T17:57:31.854Z,0.20
2023-01-07T17:59:59.885Z,0.50
2023-01-07T18:02:30.554Z,0.20
2023-01-07T18:04:59.816Z,0.60
2023-01-07T18:07:27.652Z,0.20
2023-01-07T18:09:55.469Z,0.47
2023-01-07T18:12:31.375Z,0.20
2023-01-07T18:14:59.802Z,0.47
2023-01-07T18:17:28.141Z,0.40
2023-01-07T18:19:56.558Z,0.10
2023-01-07T18:22:26.274Z,0.30
2023-01-07T18:24:54.037Z,0.30
2023-01-07T18:27:22.495Z,0.30
2023-01-07T18:29:50.261Z,0.20
2023-01-07T18:32:18.105Z,0.30
2023-01-07T18:34:45.898Z,0.33
2023-01-07T18:37:14.931Z,0.50
2023-01-07T18:39:44.040Z,0.37
2023-01-07T18:42:12.372Z,0.23
2023-01-07T18:44:40.181Z,0.97
2023-01-07T18:47:07.961Z,0.43
2023-01-07T18:49:35.715Z,0.53
2023-01-07T18:52:03.512Z,0.20
2023-01-07T18:54:33.133Z,0.20
2023-01-07T18:57:02.450Z,0.20
2023-01-07T18:59:30.228Z,0.40
2023-01-07T19:02:00.268Z,0.30
2023-01-07T19:04:28.525Z,0.20
2023-01-07T19:06:56.638Z,0.67
2023-01-07T19:09:24.575Z,0.70
2023-01-07T19:11:52.328Z,0.50
2023-01-07T19:14:22.527Z,0.30
2023-01-07T19:16:50.682Z,0.20
2023-01-07T19:19:18.537Z,0.47
2023-01-07T19:21:48.079Z,0.30
2023-01-07T19:24:15.952Z,0.27
2023-01-07T19:26:43.933Z,0.20
2023-01-07T19:29:13.903Z,0.30
2023-01-07T19:31:45.530Z,0.43
2023-01-07T19:34:13.575Z,0.47
2023-01-07T19:36:44.886Z,0.47
2023-01-07T19:39:13.984Z,0.40
2023-01-07T19:41:42.820Z,0.20
2023-01-07T19:44:11.844Z,0.17
2023-01-07T19:46:40.053Z,0.30
2023-01-07T19:49:10.269Z,0.20
2023-01-07T19:51:39.733Z,0.87
2023-01-07T19:54:08.559Z,0.40
2023-01-07T19:56:40.202Z,0.43
2023-01-07T19:59:08.011Z,0.20
2023-01-07T20:01:36.663Z,0.20
2023-01-07T20:04:06.778Z,0.80
2023-01-07T20:06:38.763Z,0.20
2023-01-07T20:09:10.716Z,0.93
2023-01-07T20:11:39.305Z,0.50
2023-01-07T20:14:08.140Z,0.90
2023-01-07T20:16:38.922Z,0.53
2023-01-07T20:19:06.929Z,0.63
2023-01-07T20:21:36.176Z,0.93
2023-01-07T20:24:06.146Z,0.77
2023-01-07T20:26:35.409Z,0.30
2023-01-07T20:29:03.303Z,0.77
2023-01-07T20:31:32.367Z,0.93
2023-01-07T20:34:00.766Z,0.20
2023-01-07T20:36:29.944Z,0.50
2023-01-07T20:39:05.050Z,0.20
2023-01-07T20:41:33.821Z,0.30
2023-01-07T20:44:03.467Z,0.20
2023-01-07T20:46:33.425Z,0.20
2023-01-07T20:49:01.707Z,0.30
2023-01-07T20:51:29.539Z,1.70
2023-01-07T20:53:58.664Z,0.30
2023-01-07T20:56:31.794Z,0.40
2023-01-07T20:59:00.595Z,0.77
2023-01-07T21:01:29.534Z,0.30
2023-01-07T21:03:57.587Z,0.30
2023-01-07T21:06:25.501Z,0.20
2023-01-07T21:08:53.276Z,0.40
2023-01-07T21:11:24.377Z,1.13
2023-01-07T21:13:55.922Z,0.60
2023-01-07T21:16:24.327Z,0.30
2023-01-07T21:18:52.135Z,0.23
2023-01-07T21:21:23.933Z,0.40
2023-01-07T21:23:52.396Z,0.50
2023-01-07T21:26:21.879Z,0.50
2023-01-07T21:28:53.375Z,0.20
2023-01-07T21:31:21.281Z,0.47
2023-01-07T21:33:49.126Z,0.30
2023-01-07T21:36:18.523Z,0.40
2023-01-07T21:38:47.163Z,1.07
2023-01-07T21:41:16.871Z,0.30
2023-01-07T21:43:46.252Z,0.60
2023-01-07T21:46:14.811Z,0.90
2023-01-07T21:48:46.710Z,0.40
2023-01-07T21:51:18.893Z,0.50
2023-01-07T21:53:47.338Z,0.37
2023-01-07T21:56:16.939Z,0.30
2023-01-07T21:58:46.776Z,0.60
2023-01-07T22:01:15.462Z,0.30
2023-01-07T22:03:46.885Z,0.37
2023-01-07T22:06:19.971Z,0.30
2023-01-07T22:08:48.229Z,0.60
2023-01-07T22:11:18.093Z,0.50
2023-01-07T22:13:50.808Z,0.50
2023-01-07T22:16:19.003Z,0.53
2023-01-07T22:18:47.028Z,1.37
2023-01-07T22:21:15.188Z,0.37
2023-01-07T22:23:45.025Z,0.37
2023-01-07T22:26:13.388Z,1.27
2023-01-07T22:28:42.101Z,0.77
2023-01-07T22:31:16.658Z,0.50
2023-01-07T22:33:44.492Z,0.40
2023-01-07T22:36:15.643Z,0.40
2023-01-07T22:38:43.576Z,0.77
2023-01-07T22:41:12.914Z,0.53
2023-01-07T22:43:40.973Z,1.20
2023-01-07T22:46:13.288Z,1.23
2023-01-07T22:48:41.151Z,0.30
2023-01-07T22:51:12.114Z,0.40
2023-01-07T22:53:40.070Z,0.73
2023-01-07T22:56:08.648Z,1.80
2023-01-07T22:58:36.454Z,0.73
2023-01-07T23:01:14.160Z,0.50
2023-01-07T23:03:43.381Z,0.77
2023-01-07T23:06:12.881Z,0.30
2023-01-07T23:08:41.979Z,0.67
2023-01-07T23:11:10.640Z,0.53
2023-01-07T23:13:38.582Z,0.73
2023-01-07T23:16:07.605Z,0.47
2023-01-07T23:18:36.805Z,0.20
2023-01-07T23:21:05.791Z,0.47
2023-01-07T23:23:33.572Z,0.60
2023-01-07T23:26:01.356Z,0.70
2023-01-07T23:28:29.157Z,0.30
2023-01-07T23:31:01.687Z,0.40
2023-01-07T23:33:30.495Z,0.40
2023-01-07T23:36:03.843Z,0.53
2023-01-07T23:38:31.823Z,0.23
2023-01-07T23:41:03.226Z,0.40
2023-01-07T23:43:31.327Z,0.30
2023-01-07T23:45:59.621Z,0.70
2023-01-07T23:48:28.501Z,0.70
2023-01-07T23:50:56.928Z,0.90
2023-01-07T23:53:26.348Z,0.77
2023-01-07T23:55:55.187Z,0.60
2023-01-07T23:58:23.803Z,1.03
